Data for 05/25/2008

Time Sea-Level Adjusted Pressure Absolute Pressure Temperature Relative Humidity Dew Point   
(mb) (inHg) (mb) (inHg) (C) (F) (%) (C) (F)
00:05 1014 29.94 843 24.89 6.2 43.1 164 13.5 56.3
00:10 1014 29.94 843 24.89 6.2 43.1 164 13.5 56.3
00:15 1014 29.94 843 24.89 6.1 43 164 13.4 56.1
00:20 1014 29.94 843 24.89 6 42.9 164 13.3 56
00:25 1014 29.94 843 24.89 6 42.8 164 13.3 56
00:30 1014 29.94 843 24.89 6.1 42.9 164 13.4 56
00:35 1014 29.94 843 24.89 6 42.9 164 13.3 56
00:40 1014 29.94 843 24.89 6 42.8 164 13.3 56
00:45 1014 29.94 843 24.89 6 42.9 164 13.3 56
00:50 1014 29.94 843 24.89 6 42.8 164 13.3 55.9
00:55 1014 29.94 843 24.89 5.9 42.7 164 13.2 55.8
01:00 1014 29.94 843 24.89 5.9 42.6 164 13.2 55.7
01:05 1014 29.94 843 24.89 5.9 42.6 164 13.2 55.7
01:10 1014 29.94 843 24.89 5.8 42.5 164 13.1 55.6
01:15 1014 29.94 843 24.89 5.8 42.4 164 13 55.5
01:20 1014 29.94 843 24.89 5.8 42.5 164 13.1 55.6
01:25 1014 29.94 843 24.89 5.8 42.4 164 13.1 55.5
01:30 1014 29.94 843 24.89 5.8 42.5 164 13.1 55.5
01:35 1014 29.94 843 24.89 5.8 42.5 164 13.1 55.6
01:40 1014 29.94 843 24.89 5.9 42.5 164 13.1 55.6
01:45 1014 29.94 843 24.89 5.8 42.5 164 13.1 55.6
01:50 1014 29.94 843 24.89 5.8 42.5 164 13.1 55.6
01:55 1014 29.94 843 24.89 5.8 42.5 164 13.1 55.6
02:00 1014 29.94 843 24.89 5.8 42.5 164 13.1 55.6
02:05 1014 29.94 843 24.89 5.7 42.3 164 13 55.4
02:10 1014 29.94 843 24.89 5.7 42.2 164 13 55.3
02:15 1014 29.94 843 24.89 5.8 42.4 164 13 55.5
02:20 1014 29.94 843 24.89 5.8 42.4 164 13 55.5
02:25 1014 29.94 843 24.89 5.8 42.4 164 13 55.5
02:30 1014 29.94 843 24.89 5.8 42.5 164 13.1 55.5
02:35 1014 29.94 843 24.89 5.8 42.5 164 13.1 55.6
02:40 1014 29.94 843 24.89 5.9 42.6 164 13.1 55.7
02:45 1014 29.94 843 24.89 5.8 42.5 164 13.1 55.6
02:50 1014 29.94 843 24.89 5.9 42.7 164 13.2 55.8
02:55 1014 29.94 843 24.89 6 42.8 164 13.2 55.8
03:00 1014 29.94 843 24.89 5.9 42.7 164 13.2 55.8
03:05 1014 29.94 843 24.89 5.9 42.6 164 13.2 55.7
03:10 1014 29.94 844 24.92 5.9 42.6 164 13.2 55.7
03:15 1014 29.94 844 24.92 5.9 42.7 164 13.2 55.8
03:20 1014 29.94 844 24.92 6 42.8 164 13.3 55.9
03:25 1014 29.94 844 24.92 6 42.8 164 13.3 55.9
03:30 1014 29.94 844 24.92 6.1 43 164 13.4 56.1
03:35 1014 29.94 844 24.92 6.1 43 164 13.4 56.2
03:40 1014 29.94 844 24.92 6.1 42.9 164 13.4 56.1
03:45 1014 29.94 844 24.92 6 42.8 164 13.3 55.9
03:50 1014 29.94 844 24.92 5.9 42.5 164 13.1 55.6
03:55 1014 29.94 844 24.92 5.8 42.4 164 13.1 55.5
04:00 1014 29.94 844 24.92 5.8 42.4 164 13 55.5
04:05 1014 29.94 844 24.92 5.7 42.3 164 13 55.5
04:10 1014 29.94 844 24.92 5.8 42.4 164 13 55.5
04:15 1014 29.94 844 24.92 5.9 42.6 164 13.2 55.7
04:20 1015 29.97 844 24.92 5.9 42.7 164 13.2 55.8
04:25 1015 29.97 844 24.92 5.9 42.7 164 13.2 55.8
04:30 1015 29.97 844 24.92 6 42.8 95 5.2 41.4
04:35 1015 29.97 844 24.92 6.1 43 94 5.3 41.5
04:40 1015 29.97 844 24.92 6.1 43 95 5.3 41.6
04:45 1015 29.97 844 24.92 6 42.8 95 5.3 41.5
04:50 1015 29.97 844 24.92 5.9 42.6 95 5.2 41.4
04:55 1015 29.97 844 24.92 5.9 42.6 96 5.2 41.4
05:00 1015 29.97 844 24.92 5.9 42.6 96 5.3 41.5
05:05 1015 29.97 844 24.92 5.8 42.5 96 5.3 41.5
05:10 1015 29.97 844 24.92 5.8 42.5 96 5.3 41.5
05:15 1015 29.97 844 24.92 5.8 42.4 96 5.2 41.4
05:20 1015 29.97 844 24.92 5.8 42.5 96 5.3 41.5
05:25 1015 29.97 844 24.92 5.8 42.4 96 5.2 41.4
05:30 1015 29.97 844 24.92 5.8 42.4 96 5.2 41.4
05:35 1015 29.97 844 24.92 5.8 42.4 96 5.2 41.3
05:40 1015 29.97 844 24.92 5.8 42.4 96 5.2 41.3
05:45 1015 29.97 844 24.92 5.8 42.4 96 5.1 41.2
05:50 1015 29.97 844 24.92 5.8 42.5 95 5.1 41.2
05:55 1015 29.97 844 24.92 5.8 42.4 95 5 41.1
06:00 1015 29.97 844 24.92 5.8 42.4 95 5 41.1
06:05 1015 29.97 844 24.92 5.8 42.4 95 5.1 41.1
06:10 1015 29.97 844 24.92 5.8 42.5 95 5 41.1
06:15 1015 29.97 844 24.92 5.8 42.4 95 5 41.1
06:20 1015 29.97 844 24.92 5.7 42.3 95 4.9 40.9
06:25 1015 29.97 844 24.92 5.7 42.2 95 4.9 40.8
06:30 1015 29.97 844 24.92 5.7 42.3 95 5 40.9
06:35 1015 29.97 844 24.92 5.8 42.5 95 5 41.1
06:40 1015 29.97 844 24.92 6 42.7 94 5.1 41.2
06:45 1015 29.97 844 24.92 6 42.7 94 5 41.1
06:50 1015 29.97 844 24.92 5.9 42.7 94 5 41
06:55 1015 29.97 844 24.92 5.9 42.7 94 5 41.1
07:00 1015 29.97 844 24.92 5.9 42.6 94 5 41
07:05 1015 29.97 844 24.92 5.8 42.4 95 5 41.1
07:10 1015 29.97 844 24.92 5.9 42.5 95 5.1 41.3
07:15 1015 29.97 844 24.92 5.9 42.6 95 5.2 41.3
07:20 1015 29.97 844 24.92 5.9 42.6 96 5.3 41.5
07:25 1015 29.97 844 24.92 6 42.8 96 5.4 41.7
07:30 1015 29.97 845 24.95 6.1 43.1 96 5.5 41.9
07:35 1015 29.97 845 24.95 6.2 43.2 96 5.6 42.1
07:40 1015 29.97 845 24.95 6.2 43.2 96 5.7 42.2
07:45 1015 29.97 845 24.95 6.3 43.3 96 5.7 42.3
07:50 1015 29.97 845 24.95 6.3 43.4 96 5.8 42.4
07:55 1016 30 845 24.95 6.2 43.2 95 5.5 42
08:00 1016 30 845 24.95 6.2 43.2 96 5.5 42
08:05 1016 30 845 24.95 6.3 43.3 95 5.6 42
08:10 1016 30 845 24.95 6.3 43.3 95 5.6 42
08:15 1016 30 845 24.95 6.3 43.4 95 5.6 42.1
08:20 1016 30 845 24.95 6.4 43.6 95 5.7 42.3
08:25 1016 30 845 24.95 6.3 43.3 95 5.5 42
08:30 1016 30 845 24.95 6.3 43.4 95 5.6 42
08:35 1016 30 845 24.95 6.5 43.6 95 5.7 42.2
08:40 1016 30 845 24.95 6.6 43.9 95 5.8 42.4
08:45 1016 30 845 24.95 6.8 44.2 94 5.9 42.7
08:50 1016 30 845 24.95 6.9 44.4 94 6 42.8
08:55 1016 30 845 24.95 6.9 44.5 94 6 42.8
09:00 1016 30 845 24.95 7.1 44.8 93 6.1 43
09:05 1016 30 845 24.95 7.3 45.1 93 6.2 43.1
09:10 1016 30 845 24.95 7.4 45.3 92 6.3 43.3
09:15 1016 30 845 24.95 7.4 45.4 92 6.2 43.2
09:20 1016 30 845 24.95 7.6 45.7 92 6.3 43.4
09:25 1016 30 845 24.95 7.8 46.1 91 6.4 43.5
09:30 1016 30 845 24.95 7.7 45.9 89 6.1 42.9
09:35 1016 30 845 24.95 8 46.3 87 5.9 42.7
09:40 1016 30 845 24.95 8.1 46.5 86 5.9 42.7
09:45 1016 30 845 24.95 8.1 46.6 86 5.9 42.5
09:50 1016 30 845 24.95 8.1 46.5 85 5.7 42.3
09:55 1016 30 845 24.95 8.1 46.5 86 5.9 42.6
10:00 1016 30 845 24.95 8.2 46.7 86 5.9 42.6
10:05 1016 30 845 24.95 8.3 46.9 85 6 42.7
10:10 1016 30 845 24.95 8.3 47 85 6 42.8
10:15 1016 30 845 24.95 8.3 46.9 86 6 42.8
10:20 1016 30 845 24.95 8.3 47 84 5.9 42.6
10:25 1016 30 845 24.95 8.3 46.9 85 5.9 42.5
10:30 1016 30 845 24.95 8.2 46.8 84 5.7 42.2
10:35 1016 30 845 24.95 8.1 46.6 84 5.6 42.1
10:40 1016 30 845 24.95 8 46.4 85 5.6 42
10:45 1016 30 845 24.95 8 46.3 85 5.6 42.1
10:50 1016 30 845 24.95 8 46.3 85 5.6 42
10:55 1016 30 845 24.95 8.1 46.6 84 5.6 42.1
11:00 1016 30 845 24.95 8.1 46.5 84 5.6 42.1
11:05 1016 30 845 24.95 7.8 46 86 5.5 42
11:10 1016 30 845 24.95 8 46.4 84 5.5 41.9
11:15 1016 30 845 24.95 7.9 46.1 86 5.6 42.1
11:20 1016 30 845 24.95 8.3 46.9 84 5.7 42.3
11:25 1016 30 845 24.95 8.7 47.6 82 5.8 42.5
11:30 1016 30 845 24.95 8.8 47.8 81 5.7 42.2
11:35 1016 30 845 24.95 8.2 46.8 83 5.5 41.9
11:40 1016 30 845 24.95 7.9 46.2 84 5.4 41.7
11:45 1016 30 845 24.95 8.3 47 82 5.4 41.7
11:50 1016 30 845 24.95 8.4 47.1 80 5.2 41.3
11:55 1016 30 845 24.95 8.5 47.3 79 5.1 41.1
12:00 1016 30 845 24.95 8.6 47.6 78 5.1 41.2
12:05 1016 30 845 24.95 8.9 48 77 5.1 41.2
12:10 1016 30 845 24.95 8.8 47.8 77 5 41
12:15 1016 30 845 24.95 8.9 48 78 5.3 41.5
12:20 1016 30 845 24.95 9.2 48.6 76 5.3 41.5
12:25 1016 30 845 24.95 8.6 47.4 79 5.2 41.4
12:30 1016 30 845 24.95 8.6 47.4 79 5.1 41.2
12:35 1016 30 845 24.95 9.5 49.1 75 5.2 41.4
12:40 1016 30 845 24.95 9.5 49.1 73 5 41.1
12:45 1016 30 845 24.95 9.7 49.5 73 5.2 41.3
12:50 1016 30 845 24.95 9.3 48.8 75 5.1 41.2
12:55 1016 30 845 24.95 9 48.3 73 4.5 40
13:00 1016 30 845 24.95 9.4 48.9 72 4.6 40.2
13:05 1016 30 845 24.95 9.9 49.9 70 4.7 40.5
13:10 1016 30 845 24.95 10.8 51.5 66 4.8 40.6
13:15 1016 30 845 24.95 11.5 52.7 66 5.3 41.5
13:20 1016 30 845 24.95 11.3 52.4 65 5 40.9
13:25 1016 30 845 24.95 10.1 50.3 68 4.6 40.3
13:30 1016 30 845 24.95 9.9 49.9 71 5 40.9
13:35 1016 30 845 24.95 10.8 51.5 66 4.7 40.5
13:40 1016 30 845 24.95 11.3 52.3 65 5 40.9
13:45 1016 30 845 24.95 11.2 52.1 65 4.9 40.8
13:50 1016 30 845 24.95 11.7 53 64 5.2 41.4
13:55 1016 30 845 24.95 12.3 54.1 62 5.3 41.5
14:00 1016 30 845 24.95 12.3 54.1 61 5 41
14:05 1016 30 845 24.95 11.9 53.4 60 4.5 40.1
14:10 1016 30 845 24.95 12 53.7 59 4.3 39.8
14:15 1016 30 845 24.95 12.2 54 58 4.2 39.5
14:20 1016 30 845 24.95 11.8 53.3 60 4.5 40
14:25 1016 30 845 24.95 11.8 53.2 60 4.4 39.8
14:30 1016 30 845 24.95 12.5 54.5 57 4.2 39.5
14:35 1016 30 845 24.95 12 53.6 67 6 42.8
14:40 1016 30 845 24.95 10.5 50.9 72 5.7 42.2
14:45 1016 30 845 24.95 10.3 50.5 72 5.4 41.8
14:50 1016 30 845 24.95 9.9 49.9 72 5.2 41.4
14:55 1016 30 845 24.95 9.8 49.7 72 5.1 41.2
15:00 1016 30 845 24.95 10.1 50.2 72 5.4 41.7
15:05 1016 30 845 24.95 10.7 51.2 70 5.4 41.7
15:10 1016 30 845 24.95 10.7 51.2 69 5.2 41.3
15:15 1016 30 845 24.95 10.4 50.8 68 4.9 40.8
15:20 1016 30 845 24.95 9.8 49.7 72 5.1 41.2
15:25 1016 30 845 24.95 10.4 50.6 68 4.7 40.5
15:30 1016 30 845 24.95 11 51.8 65 4.8 40.6
15:35 1016 30 845 24.95 11.1 52 64 4.7 40.4
15:40 1016 30 845 24.95 11 51.8 64 4.5 40.2
15:45 1016 30 845 24.95 10.8 51.4 64 4.3 39.8
15:50 1016 30 845 24.95 10.9 51.6 63 4.2 39.6
15:55 1016 30 845 24.95 10.5 51 64 4.1 39.4
16:00 1016 30 845 24.95 10.8 51.4 62 3.9 39.1
16:05 1016 30 845 24.95 10.5 50.8 64 4 39.2
16:10 1016 30 845 24.95 10.1 50.1 66 4 39.1
16:15 1016 30 845 24.95 10.3 50.6 66 4.3 39.7
16:20 1016 30 845 24.95 10.3 50.6 67 4.6 40.2
16:25 1016 30 845 24.95 10.1 50.2 69 4.7 40.4
16:30 1016 30 845 24.95 10.6 51 67 4.8 40.7
16:35 1016 30 845 24.95 10.8 51.4 66 4.7 40.4
16:40 1016 30 845 24.95 11 51.7 64 4.5 40.2
16:45 1016 30 845 24.95 11.5 52.6 61 4.3 39.8
16:50 1016 30 845 24.95 11.2 52.2 61 4.1 39.3
16:55 1016 30 845 24.95 11 51.8 60 3.7 38.6
17:00 1016 30 845 24.95 11 51.8 61 3.7 38.7
17:05 1016 30 845 24.95 11.7 53.1 58 3.8 38.8
17:10 1016 30 845 24.95 11.6 53 59 3.9 39
17:15 1016 30 845 24.95 11.8 53.2 58 3.8 38.9
17:20 1016 30 845 24.95 11.4 52.5 59 3.8 38.9
17:25 1016 30 845 24.95 11.8 53.2 59 4.1 39.3
17:30 1016 30 845 24.95 11.6 52.8 59 3.8 38.9
17:35 1016 30 845 24.95 11.3 52.3 60 3.9 39
17:40 1016 30 845 24.95 11.7 53 60 4.2 39.5
17:45 1016 30 845 24.95 12.1 53.8 59 4.4 40
17:50 1016 30 845 24.95 12.4 54.3 59 4.6 40.3
17:55 1016 30 845 24.95 12.4 54.2 57 4.1 39.5
18:00 1016 30 845 24.95 12.3 54.1 58 4.4 39.8
18:05 1016 30 845 24.95 12.4 54.4 58 4.3 39.8
18:10 1016 30 845 24.95 12.1 53.8 57 4 39.3
18:15 1016 30 845 24.95 11.3 52.3 62 4.2 39.6
18:20 1016 30 845 24.95 11.2 52.2 62 4.2 39.5
18:25 1016 30 845 24.95 11.8 53.2 60 4.2 39.6
18:30 1016 30 845 24.95 11.9 53.4 59 4.3 39.7
18:35 1016 30 845 24.95 11.9 53.4 60 4.4 39.9
18:40 1016 30 845 24.95 11.9 53.3 59 4.2 39.6
18:45 1016 30 845 24.95 12 53.6 59 4.3 39.8
18:50 1016 30 845 24.95 12.1 53.7 58 4.1 39.4
18:55 1016 30 845 24.95 12.1 53.8 58 4.2 39.6
19:00 1016 30 845 24.95 12 53.5 59 4.1 39.5
19:05 1016 30 845 24.95 11.9 53.5 59 4.2 39.5
19:10 1016 30 845 24.95 11.9 53.4 59 4.3 39.7
19:15 1016 30 845 24.95 11.7 53.1 60 4.3 39.7
19:20 1016 30 845 24.95 11.7 53.1 60 4.3 39.7
19:25 1016 30 845 24.95 11.8 53.2 60 4.4 39.8
19:30 1016 30 845 24.95 11.6 52.8 60 4.2 39.5
19:35 1016 30 845 24.95 11.3 52.3 62 4.4 39.9
19:40 1016 30 845 24.95 11.1 52 63 4.3 39.8
19:45 1016 30 845 24.95 11.1 51.9 63 4.3 39.7
19:50 1016 30 845 24.95 11.1 52 62 4.2 39.6
19:55 1016 30 845 24.95 11.1 51.9 63 4.3 39.7
20:00 1016 30 845 24.95 11 51.8 63 4.2 39.6
20:05 1016 30 845 24.95 10.9 51.6 65 4.5 40.1
20:10 1016 30 845 24.95 10.5 50.9 67 4.7 40.4
20:15 1016 30 845 24.95 10.4 50.6 69 4.9 40.8
20:20 1016 30 845 24.95 10.1 50.3 70 5 41
20:25 1016 30 845 24.95 10 50.1 71 4.9 40.9
20:30 1016 30 845 24.95 10 49.9 71 5 40.9
20:35 1016 30 845 24.95 9.9 49.8 72 5.1 41.2
20:40 1016 30 845 24.95 9.8 49.6 76 5.8 42.5
20:45 1016 30 845 24.95 9.4 48.9 78 5.8 42.4
20:50 1016 30 845 24.95 9.2 48.5 79 5.7 42.3
20:55 1016 30 845 24.95 9.1 48.3 80 5.9 42.6
21:00 1016 30 845 24.95 9 48.2 80 5.8 42.4
21:05 1016 30 845 24.95 9 48.1 80 5.8 42.4
21:10 1016 30 846 24.98 8.9 48 82 6 42.8
21:15 1016 30 846 24.98 8.8 47.8 83 6 42.8
21:20 1016 30 846 24.98 8.6 47.6 84 6 42.8
21:25 1016 30 846 24.98 8.5 47.4 85 6.1 43
21:30 1017 30.03 846 24.98 8.5 47.2 85 6.2 43.1
21:35 1017 30.03 846 24.98 8.4 47.1 87 6.3 43.3
21:40 1017 30.03 846 24.98 8.4 47 87 6.4 43.5
21:45 1017 30.03 846 24.98 8.4 47 88 6.4 43.6
21:50 1017 30.03 846 24.98 8.3 47 88 6.4 43.5
21:55 1017 30.03 846 24.98 8.3 47 87 6.3 43.4
22:00 1017 30.03 846 24.98 8.3 46.9 87 6.2 43.2
22:05 1017 30.03 846 24.98 8.2 46.7 86 5.9 42.7
22:10 1017 30.03 846 24.98 8.1 46.7 85 5.8 42.4
22:15 1017 30.03 846 24.98 8.2 46.7 85 5.7 42.3
22:20 1017 30.03 846 24.98 8.1 46.6 85 5.7 42.2
22:25 1017 30.03 846 24.98 8 46.5 85 5.7 42.2
22:30 1017 30.03 846 24.98 8 46.4 85 5.7 42.3
22:35 1017 30.03 846 24.98 8 46.4 86 5.9 42.6
22:40 1017 30.03 846 24.98 7.9 46.1 88 6 42.8
22:45 1017 30.03 846 24.98 7.6 45.6 89 5.9 42.6
22:50 1017 30.03 846 24.98 7.4 45.4 90 5.8 42.5
22:55 1017 30.03 846 24.98 7.4 45.2 90 5.8 42.5
23:00 1017 30.03 846 24.98 7.4 45.3 90 5.9 42.6
23:05 1017 30.03 846 24.98 7.4 45.3 90 5.8 42.5
23:10 1017 30.03 846 24.98 7.4 45.4 89 5.8 42.4
23:15 1017 30.03 846 24.98 7.5 45.5 89 5.8 42.5
23:20 1017 30.03 846 24.98 7.5 45.5 89 5.9 42.5
23:25 1017 30.03 846 24.98 7.5 45.5 90 5.9 42.6
23:30 1017 30.03 846 24.98 7.5 45.4 90 5.9 42.6
23:35 1017 30.03 846 24.98 7.4 45.4 90 5.9 42.7
23:40 1017 30.03 846 24.98 7.5 45.4 90 6 42.7
23:45 1017 30.03 846 24.98 7.5 45.4 90 6 42.8
23:50 1017 30.03 846 24.98 7.5 45.4 90 6 42.8
23:55 1017 30.03 846 24.98 7.4 45.4 90 6 42.7
24:00 1017 30.03 846 24.98 7.5 45.4 90 6 42.8